createdAt,value
2018-06-10T00:04:27.992Z,24.30
2018-06-10T00:06:56.148Z,24.40
2018-06-10T00:09:24.476Z,24.30
2018-06-10T00:11:52.703Z,24.30
2018-06-10T00:14:20.822Z,24.30
2018-06-10T00:16:49.020Z,24.30
2018-06-10T00:19:17.365Z,24.20
2018-06-10T00:21:45.538Z,24.20
2018-06-10T00:24:13.715Z,24.20
2018-06-10T00:29:15.693Z,24.10
2018-06-10T00:31:43.884Z,24.10
2018-06-10T00:34:12.020Z,24.10
2018-06-10T00:36:40.230Z,24.10
2018-06-10T00:39:08.359Z,24.00
2018-06-10T00:41:37.066Z,23.90
2018-06-10T00:44:05.252Z,23.80
2018-06-10T00:49:01.479Z,23.70
2018-06-10T00:51:29.739Z,23.70
2018-06-10T00:53:57.860Z,23.60
2018-06-10T00:56:37.599Z,23.60
2018-06-10T00:59:05.730Z,23.50
2018-06-10T01:04:01.828Z,23.40
2018-06-10T01:06:30.601Z,23.30
2018-06-10T01:08:58.842Z,23.30
2018-06-10T01:11:27.096Z,23.20
2018-06-10T01:13:55.358Z,23.20
2018-06-10T01:18:51.586Z,23.20
2018-06-10T01:21:20.402Z,23.20
2018-06-10T01:23:48.656Z,23.10
2018-06-10T01:26:22.268Z,23.10
2018-06-10T01:28:50.504Z,23.20
2018-06-10T01:31:18.707Z,23.10
2018-06-10T01:33:46.900Z,23.10
2018-06-10T01:36:15.051Z,23.10
2018-06-10T01:38:43.306Z,23.10
2018-06-10T01:41:11.506Z,23.00
2018-06-10T01:43:39.682Z,23.00
2018-06-10T01:46:08.037Z,23.00
2018-06-10T01:48:36.231Z,22.90
2018-06-10T01:51:04.428Z,22.90
2018-06-10T01:53:32.711Z,22.80
2018-06-10T01:56:00.937Z,22.80
2018-06-10T01:58:29.081Z,22.80
2018-06-10T02:03:25.292Z,22.70
2018-06-10T02:05:53.677Z,22.70
2018-06-10T02:08:21.887Z,22.70
2018-06-10T02:10:50.029Z,22.60
2018-06-10T02:13:18.269Z,22.60
2018-06-10T02:15:46.536Z,22.60
2018-06-10T02:18:14.889Z,22.60
2018-06-10T02:20:43.083Z,22.50
2018-06-10T02:23:11.272Z,22.50
2018-06-10T02:25:39.472Z,22.50
2018-06-10T02:28:07.833Z,22.50
2018-06-10T02:30:36.127Z,22.50
2018-06-10T02:33:04.579Z,22.50
2018-06-10T02:35:32.743Z,22.50
2018-06-10T02:38:00.871Z,22.40
2018-06-10T02:40:29.055Z,22.40
2018-06-10T02:42:57.218Z,22.40
2018-06-10T02:45:25.791Z,22.30
2018-06-10T02:47:53.974Z,22.30
2018-06-10T02:50:22.118Z,22.20
2018-06-10T02:52:50.242Z,22.20
2018-06-10T02:55:18.392Z,22.20
2018-06-10T02:57:46.690Z,22.20
2018-06-10T03:00:14.812Z,22.20
2018-06-10T03:02:43.171Z,22.20
2018-06-10T03:05:11.296Z,22.10
2018-06-10T03:07:39.533Z,22.10
2018-06-10T03:10:07.775Z,22.10
2018-06-10T03:12:35.929Z,22.10
2018-06-10T03:15:04.107Z,22.00
2018-06-10T03:17:32.280Z,22.00
2018-06-10T03:20:00.432Z,22.10
2018-06-10T03:24:56.620Z,22.00
2018-06-10T03:27:24.740Z,22.10
2018-06-10T03:29:53.055Z,22.10
2018-06-10T03:32:21.212Z,22.00
2018-06-10T03:34:49.608Z,22.00
2018-06-10T03:37:17.728Z,21.90
2018-06-10T03:39:45.939Z,21.90
2018-06-10T03:42:14.126Z,21.90
2018-06-10T03:44:42.357Z,21.90
2018-06-10T03:47:10.570Z,21.80
2018-06-10T03:49:38.793Z,21.80
2018-06-10T03:52:07.008Z,21.80
2018-06-10T03:54:35.710Z,21.80
2018-06-10T03:57:03.872Z,21.70
2018-06-10T03:59:32.031Z,21.80
2018-06-10T04:02:00.182Z,21.80
2018-06-10T04:04:28.511Z,21.80
2018-06-10T04:06:56.639Z,21.80
2018-06-10T04:09:24.818Z,21.80
2018-06-10T04:11:52.985Z,21.80
2018-06-10T04:14:21.186Z,21.90
2018-06-10T04:16:49.299Z,21.90
2018-06-10T04:19:17.423Z,21.90
2018-06-10T04:21:45.581Z,21.90
2018-06-10T04:24:13.724Z,21.90
2018-06-10T04:26:41.833Z,21.90
2018-06-10T04:29:09.968Z,21.90
2018-06-10T04:31:39.321Z,22.00
2018-06-10T04:34:09.101Z,22.00
2018-06-10T04:36:37.251Z,22.00
2018-06-10T04:39:06.720Z,22.00
2018-06-10T04:41:34.952Z,22.00
2018-06-10T04:44:03.307Z,22.00
2018-06-10T04:46:31.513Z,22.10
2018-06-10T04:48:59.656Z,22.10
2018-06-10T04:51:27.810Z,22.10
2018-06-10T04:53:56.106Z,22.20
2018-06-10T04:56:24.256Z,22.20
2018-06-10T04:58:52.398Z,22.20
2018-06-10T05:01:20.543Z,22.20
2018-06-10T05:03:48.687Z,22.20
2018-06-10T05:06:16.835Z,22.20
2018-06-10T05:08:45.032Z,22.20
2018-06-10T05:13:41.262Z,22.20
2018-06-10T05:16:09.623Z,22.20
2018-06-10T05:18:37.754Z,22.30
2018-06-10T05:21:05.928Z,22.20
2018-06-10T05:23:34.124Z,22.20
2018-06-10T05:26:02.439Z,22.20
2018-06-10T05:30:58.586Z,22.30
2018-06-10T05:33:26.759Z,22.30
2018-06-10T05:35:55.569Z,22.30
2018-06-10T05:38:23.814Z,22.30
2018-06-10T05:40:52.016Z,22.40
2018-06-10T05:43:20.298Z,22.40
2018-06-10T05:45:48.541Z,22.40
2018-06-10T05:48:16.657Z,22.40
2018-06-10T05:50:44.853Z,22.50
2018-06-10T05:53:13.075Z,22.60
2018-06-10T05:55:41.376Z,22.60
2018-06-10T05:58:09.635Z,22.60
2018-06-10T06:00:38.017Z,22.60
2018-06-10T06:03:06.381Z,22.70
2018-06-10T06:05:34.592Z,22.70
2018-06-10T06:08:02.858Z,22.70
2018-06-10T06:10:30.987Z,22.70
2018-06-10T06:12:59.227Z,22.80
2018-06-10T06:15:27.499Z,22.80
2018-06-10T06:17:55.766Z,22.80
2018-06-10T06:20:23.964Z,22.90
2018-06-10T11:25:55.894Z,31.20
2018-06-10T11:30:52.324Z,31.30
2018-06-10T11:33:20.644Z,31.50
2018-06-10T11:35:48.852Z,31.70
2018-06-10T11:43:12.948Z,31.80
2018-06-10T11:45:41.184Z,31.70
2018-06-10T11:48:09.321Z,31.40
2018-06-10T11:50:37.459Z,31.20
2018-06-10T11:53:05.649Z,30.90
2018-06-10T11:55:33.875Z,30.60
2018-06-10T11:58:02.234Z,30.30
2018-06-10T12:00:30.461Z,30.10
2018-06-10T12:02:58.661Z,29.80
2018-06-10T12:05:26.977Z,29.60
2018-06-10T12:07:55.207Z,29.30
2018-06-10T12:10:23.364Z,29.10
2018-06-10T12:12:51.691Z,28.80
2018-06-10T12:15:19.824Z,28.70
2018-06-10T12:17:48.145Z,28.60
2018-06-10T12:20:16.436Z,28.50
2018-06-10T12:22:44.674Z,28.50
2018-06-10T12:25:12.798Z,28.50
2018-06-10T12:27:40.921Z,28.40
2018-06-10T12:30:09.344Z,28.40
2018-06-10T12:35:05.686Z,28.30
2018-06-10T12:37:33.917Z,28.30
2018-06-10T12:40:02.079Z,28.20
2018-06-10T12:42:30.307Z,28.10
2018-06-10T12:44:58.451Z,28.10
2018-06-10T12:47:26.650Z,28.20
2018-06-10T12:49:55.307Z,28.10
2018-06-10T12:52:23.552Z,28.10
2018-06-10T12:54:51.685Z,28.20
2018-06-10T12:57:20.080Z,28.20
2018-06-10T12:59:48.286Z,28.20
2018-06-10T13:02:16.460Z,28.20
2018-06-10T13:04:44.594Z,28.30
2018-06-10T13:07:12.798Z,28.50
2018-06-10T13:09:40.926Z,28.80
2018-06-10T13:12:09.537Z,29.00
2018-06-10T13:14:37.780Z,29.10
2018-06-10T13:17:06.130Z,29.10
2018-06-10T13:19:34.489Z,29.00
2018-06-10T13:22:02.814Z,29.00
2018-06-10T13:24:30.986Z,28.90
2018-06-10T13:29:27.359Z,28.70
2018-06-10T13:34:23.872Z,28.30
2018-06-10T13:36:52.136Z,28.20
2018-06-10T13:39:20.373Z,28.10
2018-06-10T13:41:48.531Z,28.20
2018-06-10T13:44:16.981Z,28.20
2018-06-10T13:46:45.142Z,28.10
2018-06-10T13:49:13.286Z,28.10
2018-06-10T13:51:41.696Z,28.10
2018-06-10T13:54:09.910Z,28.00
2018-06-10T13:56:38.101Z,28.00
2018-06-10T13:59:06.324Z,27.90
2018-06-10T14:01:34.518Z,27.70
2018-06-10T14:04:02.764Z,27.70
2018-06-10T14:06:31.127Z,27.70
2018-06-10T14:08:59.341Z,27.70
2018-06-10T14:11:30.113Z,27.70
2018-06-10T14:13:58.320Z,27.70
2018-06-10T14:16:26.636Z,27.70
2018-06-10T14:18:54.954Z,27.60
2018-06-10T14:21:23.345Z,27.60
2018-06-10T14:23:51.817Z,27.60
2018-06-10T14:26:20.007Z,27.60
2018-06-10T14:28:48.294Z,27.50
2018-06-10T14:31:16.557Z,27.50
2018-06-10T14:33:44.737Z,27.50
2018-06-10T14:36:12.973Z,27.40
2018-06-10T14:38:41.296Z,27.20
2018-06-10T14:41:09.686Z,27.20
2018-06-10T14:43:38.019Z,27.10
2018-06-10T14:46:06.564Z,27.00
2018-06-10T14:48:35.283Z,26.90
2018-06-10T14:51:03.520Z,26.80
2018-06-10T14:53:31.696Z,26.70
2018-06-10T14:55:59.936Z,26.60
2018-06-10T14:58:28.221Z,26.50
2018-06-10T15:00:56.438Z,26.20
2018-06-10T15:03:24.683Z,25.90
2018-06-10T15:05:52.857Z,25.70
2018-06-10T15:08:21.217Z,25.30
2018-06-10T15:10:49.432Z,25.10
2018-06-10T15:13:17.568Z,24.90
2018-06-10T15:15:45.872Z,24.70
2018-06-10T15:18:14.209Z,24.60
2018-06-10T15:20:42.404Z,24.60
2018-06-10T15:23:10.742Z,24.50
2018-06-10T15:25:38.917Z,24.40
2018-06-10T15:28:07.090Z,24.30
2018-06-10T15:30:35.255Z,24.20
2018-06-10T15:33:03.424Z,24.20
2018-06-10T15:35:31.837Z,24.20
2018-06-10T15:38:00.137Z,24.10
2018-06-10T15:40:28.432Z,24.20
2018-06-10T15:42:56.663Z,24.20
2018-06-10T15:45:24.981Z,24.20
2018-06-10T15:47:53.181Z,24.30
2018-06-10T15:50:21.384Z,24.40
2018-06-10T15:52:49.565Z,24.40
2018-06-10T15:55:17.719Z,24.40
2018-06-10T15:57:45.877Z,24.50
2018-06-10T16:00:14.118Z,24.40
2018-06-10T16:02:42.326Z,24.50
2018-06-10T16:05:10.554Z,24.50
2018-06-10T16:07:39.015Z,24.50
2018-06-10T16:10:07.248Z,24.50
2018-06-10T16:12:35.444Z,24.50
2018-06-10T16:15:03.719Z,24.50
2018-06-10T16:17:31.996Z,24.50
2018-06-10T16:20:00.260Z,24.40
2018-06-10T16:22:28.468Z,24.40
2018-06-10T16:24:56.883Z,24.40
2018-06-10T16:27:25.033Z,24.30
2018-06-10T16:29:53.487Z,24.30
2018-06-10T16:32:21.789Z,24.30
2018-06-10T16:34:50.122Z,24.30
2018-06-10T16:37:18.508Z,24.30
2018-06-10T16:39:46.898Z,24.40
2018-06-10T16:42:15.412Z,24.50
2018-06-10T16:44:43.728Z,24.60
2018-06-10T16:47:12.180Z,24.60
2018-06-10T16:49:40.405Z,24.60
2018-06-10T16:52:08.640Z,24.70
2018-06-10T16:54:37.249Z,24.60
2018-06-10T16:57:05.615Z,24.60
2018-06-10T16:59:34.343Z,24.60
2018-06-10T17:02:02.753Z,24.50
2018-06-10T17:04:31.586Z,24.40
2018-06-10T17:07:00.017Z,24.40
2018-06-10T17:09:28.422Z,24.40
2018-06-10T17:11:57.561Z,24.30
2018-06-10T17:14:25.864Z,24.20
2018-06-10T17:16:54.378Z,24.20
2018-06-10T17:19:22.774Z,24.20
2018-06-10T17:21:51.472Z,24.10
2018-06-10T17:24:20.019Z,24.10
2018-06-10T17:26:48.383Z,24.10
2018-06-10T17:29:16.662Z,24.00
2018-06-10T17:31:45.071Z,24.00
2018-06-10T17:34:13.556Z,24.00
2018-06-10T17:36:41.873Z,24.00
2018-06-10T17:39:10.233Z,23.90
2018-06-10T17:41:38.895Z,23.80
2018-06-10T17:44:07.622Z,23.80
2018-06-10T17:46:36.044Z,23.80
2018-06-10T17:49:04.593Z,23.80
2018-06-10T17:51:33.414Z,23.80
2018-06-10T17:54:01.645Z,23.90
2018-06-10T17:56:29.889Z,23.90
2018-06-10T17:58:58.174Z,23.90
2018-06-10T18:01:26.363Z,23.90
2018-06-10T18:03:54.656Z,24.00
2018-06-10T18:06:23.140Z,24.00
2018-06-10T18:08:51.494Z,24.00
2018-06-10T18:11:19.676Z,23.90
2018-06-10T18:13:47.934Z,23.90
2018-06-10T18:16:16.167Z,23.90
2018-06-10T18:18:44.388Z,23.90
2018-06-10T18:21:12.570Z,23.90
2018-06-10T18:23:40.860Z,23.90
2018-06-10T18:26:09.128Z,23.90
2018-06-10T18:28:37.952Z,23.90
2018-06-10T18:31:06.180Z,23.90
2018-06-10T18:33:34.581Z,23.90
2018-06-10T18:36:02.857Z,23.90
2018-06-10T18:38:32.289Z,23.90
2018-06-10T18:41:03.231Z,23.90
2018-06-10T18:43:31.998Z,23.90
2018-06-10T18:46:00.765Z,23.80
2018-06-10T18:48:29.163Z,23.70
2018-06-10T18:50:57.632Z,23.70
2018-06-10T18:53:26.009Z,23.60
2018-06-10T18:55:54.523Z,23.60
2018-06-10T18:58:22.772Z,23.50
2018-06-10T19:00:51.123Z,23.40
2018-06-10T19:03:19.361Z,23.30
2018-06-10T19:05:47.692Z,23.20
2018-06-10T19:08:15.961Z,23.10
2018-06-10T19:10:44.209Z,23.00
2018-06-10T19:13:12.447Z,22.90
2018-06-10T19:15:40.774Z,22.90
2018-06-10T19:18:09.900Z,22.90
2018-06-10T19:20:38.583Z,22.90
2018-06-10T19:23:07.055Z,22.90
2018-06-10T19:25:35.374Z,22.90
2018-06-10T19:28:03.660Z,22.80
2018-06-10T19:30:31.948Z,22.80
2018-06-10T19:33:00.281Z,22.70
2018-06-10T19:35:29.334Z,22.70
2018-06-10T19:37:57.624Z,22.80
2018-06-10T19:40:26.019Z,22.70
2018-06-10T19:42:55.242Z,22.70
2018-06-10T19:45:23.693Z,22.70
2018-06-10T19:47:52.356Z,22.70
2018-06-10T19:50:20.975Z,22.60
2018-06-10T19:52:49.447Z,22.60
2018-06-10T19:55:18.207Z,22.60
2018-06-10T19:57:47.230Z,22.50
2018-06-10T20:00:15.668Z,22.50
2018-06-10T20:02:43.947Z,22.50
2018-06-10T20:05:12.291Z,22.40
2018-06-10T20:07:40.670Z,22.40
2018-06-10T20:10:08.970Z,22.30
2018-06-10T20:12:38.062Z,22.30
2018-06-10T20:15:07.764Z,22.20
2018-06-10T20:17:35.997Z,22.10
2018-06-10T20:20:04.517Z,22.00
2018-06-10T20:22:32.841Z,22.10
2018-06-10T20:25:01.477Z,22.20
2018-06-10T20:27:29.800Z,22.40
2018-06-10T20:32:26.491Z,22.40
2018-06-10T20:34:54.755Z,22.20
2018-06-10T20:37:22.960Z,22.10
2018-06-10T20:39:51.404Z,22.10
2018-06-10T20:42:19.750Z,21.90
2018-06-10T20:44:48.003Z,21.90
2018-06-10T20:47:17.276Z,21.90
2018-06-10T20:49:45.501Z,21.90
2018-06-10T20:52:13.725Z,21.70
2018-06-10T20:54:41.967Z,21.70
2018-06-10T20:57:10.317Z,21.70
2018-06-10T21:02:06.773Z,21.60
2018-06-10T21:04:37.569Z,21.60
2018-06-10T21:07:05.941Z,21.50
2018-06-10T21:09:34.144Z,21.50
2018-06-10T21:12:02.373Z,21.50
2018-06-10T21:14:30.676Z,21.60
2018-06-10T21:16:58.975Z,21.60
2018-06-10T21:19:27.568Z,21.50
2018-06-10T21:21:55.779Z,21.40
2018-06-10T21:24:23.973Z,21.40
2018-06-10T21:26:52.302Z,21.40
2018-06-10T21:29:20.506Z,21.40
2018-06-10T21:31:48.670Z,21.30
2018-06-10T21:34:17.520Z,21.40
2018-06-10T21:36:45.739Z,21.40
2018-06-10T21:39:14.607Z,21.30
2018-06-10T21:44:17.846Z,21.10
2018-06-10T21:46:46.960Z,21.10
2018-06-10T21:49:15.198Z,21.10
2018-06-10T21:54:11.714Z,20.90
2018-06-10T21:56:39.862Z,21.00
2018-06-10T21:59:08.134Z,20.90
2018-06-10T22:01:36.549Z,20.90
2018-06-10T22:04:05.841Z,20.90
2018-06-10T22:09:02.244Z,20.80
2018-06-10T22:11:30.626Z,20.70
2018-06-10T22:13:59.028Z,20.70
2018-06-10T22:16:27.450Z,20.70
2018-06-10T22:18:55.584Z,20.80
2018-06-10T22:21:23.764Z,20.70
2018-06-10T22:23:51.980Z,20.70
2018-06-10T22:26:20.113Z,20.70
2018-06-10T22:28:48.239Z,20.70
2018-06-10T22:31:16.596Z,20.70
2018-06-10T22:33:44.800Z,20.70
2018-06-10T22:38:41.233Z,20.60
2018-06-10T22:41:09.828Z,20.60
2018-06-10T22:43:38.017Z,20.60
2018-06-10T22:46:06.128Z,20.70
2018-06-10T22:48:34.280Z,20.60
2018-06-10T22:51:02.434Z,20.60
2018-06-10T22:54:38.065Z,20.50
2018-06-10T22:57:06.801Z,20.50
2018-06-10T22:59:35.089Z,20.40
2018-06-10T23:02:03.610Z,20.50
2018-06-10T23:04:31.978Z,20.50
2018-06-10T23:07:00.296Z,20.40
2018-06-10T23:09:28.470Z,20.50
2018-06-10T23:11:56.706Z,20.40
2018-06-10T23:14:24.862Z,20.50
2018-06-10T23:16:53.271Z,20.50
2018-06-10T23:19:21.402Z,20.40
2018-06-10T23:21:49.639Z,20.40
2018-06-10T23:24:17.780Z,20.40
2018-06-10T23:26:45.964Z,20.30
2018-06-10T23:29:14.246Z,20.30
2018-06-10T23:31:42.424Z,20.20
2018-06-10T23:34:10.623Z,20.20
2018-06-10T23:36:39.246Z,20.20
2018-06-10T23:39:07.818Z,20.10
2018-06-10T23:41:36.113Z,20.10
2018-06-10T23:44:04.388Z,20.10
2018-06-10T23:46:32.566Z,20.00
2018-06-10T23:49:00.671Z,20.10
2018-06-10T23:51:29.530Z,20.10
2018-06-10T23:53:58.589Z,20.10
2018-06-10T23:56:27.056Z,20.00
2018-06-10T23:58:55.800Z,19.90
